sensor_id;sensor_type;location;lat;lon;timestamp;pressure;altitude;pressure_sealevel;temperature;humidity
17615;BME280;8926;49.720;6.576;2023-06-22T00:01:02;99855.63;;;23.34;77.57
17615;BME280;8926;49.720;6.576;2023-06-22T00:03:27;99858.16;;;23.35;75.63
17615;BME280;8926;49.720;6.576;2023-06-22T00:05:53;99853.78;;;23.26;76.28
17615;BME280;8926;49.720;6.576;2023-06-22T00:08:19;99847.78;;;23.16;78.29
17615;BME280;8926;49.720;6.576;2023-06-22T00:10:45;99846.28;;;23.06;78.03
17615;BME280;8926;49.720;6.576;2023-06-22T00:13:11;99846.59;;;23.02;78.63
17615;BME280;8926;49.720;6.576;2023-06-22T00:15:38;99837.94;;;23.00;79.35
17615;BME280;8926;49.720;6.576;2023-06-22T00:18:06;99830.63;;;23.02;79.49
17615;BME280;8926;49.720;6.576;2023-06-22T00:20:31;99813.63;;;23.04;77.91
17615;BME280;8926;49.720;6.576;2023-06-22T00:22:59;99801.47;;;23.01;78.75
17615;BME280;8926;49.720;6.576;2023-06-22T00:25:25;99781.31;;;22.98;78.19
17615;BME280;8926;49.720;6.576;2023-06-22T00:27:50;99769.31;;;22.94;78.66
17615;BME280;8926;49.720;6.576;2023-06-22T00:30:17;99774.28;;;22.89;79.99
17615;BME280;8926;49.720;6.576;2023-06-22T00:32:43;99753.97;;;22.88;78.86
17615;BME280;8926;49.720;6.576;2023-06-22T00:35:08;99746.00;;;22.80;78.08
17615;BME280;8926;49.720;6.576;2023-06-22T00:37:35;99743.50;;;22.79;79.80
17615;BME280;8926;49.720;6.576;2023-06-22T00:40:01;99742.13;;;22.75;79.84
17615;BME280;8926;49.720;6.576;2023-06-22T00:42:27;99740.97;;;22.77;81.62
17615;BME280;8926;49.720;6.576;2023-06-22T00:44:52;99746.00;;;22.80;81.14
17615;BME280;8926;49.720;6.576;2023-06-22T00:47:18;99765.00;;;22.85;81.50
17615;BME280;8926;49.720;6.576;2023-06-22T00:49:44;99784.78;;;22.91;81.05
17615;BME280;8926;49.720;6.576;2023-06-22T00:52:11;99797.94;;;22.92;80.81
17615;BME280;8926;49.720;6.576;2023-06-22T00:54:42;99803.28;;;22.92;79.80
17615;BME280;8926;49.720;6.576;2023-06-22T00:57:13;99829.41;;;22.89;81.87
17615;BME280;8926;49.720;6.576;2023-06-22T00:59:42;99845.91;;;22.92;81.14
17615;BME280;8926;49.720;6.576;2023-06-22T01:02:07;99836.91;;;22.93;81.46
17615;BME280;8926;49.720;6.576;2023-06-22T01:04:37;99840.25;;;22.95;80.19
17615;BME280;8926;49.720;6.576;2023-06-22T01:10:25;99843.41;;;22.91;81.42
17615;BME280;8926;49.720;6.576;2023-06-22T01:12:55;99847.91;;;22.90;81.11
17615;BME280;8926;49.720;6.576;2023-06-22T01:15:28;99838.25;;;22.89;80.72
17615;BME280;8926;49.720;6.576;2023-06-22T01:17:57;99803.97;;;22.86;80.13
17615;BME280;8926;49.720;6.576;2023-06-22T01:20:25;99737.00;;;22.81;79.03
17615;BME280;8926;49.720;6.576;2023-06-22T01:23:02;99673.22;;;22.72;80.39
17615;BME280;8926;49.720;6.576;2023-06-22T01:30:41;99725.31;;;22.58;82.33
17615;BME280;8926;49.720;6.576;2023-06-22T01:33:07;99724.63;;;22.64;82.28
17615;BME280;8926;49.720;6.576;2023-06-22T01:35:35;99731.28;;;22.68;83.37
17615;BME280;8926;49.720;6.576;2023-06-22T01:38:01;99739.13;;;22.69;80.92
17615;BME280;8926;49.720;6.576;2023-06-22T01:40:27;99740.44;;;22.65;82.19
17615;BME280;8926;49.720;6.576;2023-06-22T01:42:53;99738.09;;;22.62;83.02
17615;BME280;8926;49.720;6.576;2023-06-22T01:45:19;99739.28;;;22.60;83.78
17615;BME280;8926;49.720;6.576;2023-06-22T01:47:44;99731.13;;;22.61;83.20
17615;BME280;8926;49.720;6.576;2023-06-22T01:50:11;99737.94;;;22.64;82.41
17615;BME280;8926;49.720;6.576;2023-06-22T01:52:37;99744.94;;;22.57;82.42
17615;BME280;8926;49.720;6.576;2023-06-22T01:55:03;99740.28;;;22.51;82.54
17615;BME280;8926;49.720;6.576;2023-06-22T01:57:29;99740.91;;;22.45;83.18
17615;BME280;8926;49.720;6.576;2023-06-22T02:02:31;99728.59;;;22.44;83.57
17615;BME280;8926;49.720;6.576;2023-06-22T02:05:09;99730.25;;;22.45;82.92
17615;BME280;8926;49.720;6.576;2023-06-22T02:08:11;99726.44;;;22.47;82.27
17615;BME280;8926;49.720;6.576;2023-06-22T02:10:42;99730.25;;;22.45;81.85
17615;BME280;8926;49.720;6.576;2023-06-22T02:13:09;99726.94;;;22.43;84.16
17615;BME280;8926;49.720;6.576;2023-06-22T02:15:36;99719.44;;;22.38;82.64
17615;BME280;8926;49.720;6.576;2023-06-22T02:18:02;99716.59;;;22.40;82.61
17615;BME280;8926;49.720;6.576;2023-06-22T02:20:27;99716.59;;;22.40;82.88
17615;BME280;8926;49.720;6.576;2023-06-22T02:22:52;99712.13;;;22.40;83.37
17615;BME280;8926;49.720;6.576;2023-06-22T02:25:18;99706.47;;;22.43;82.76
17615;BME280;8926;49.720;6.576;2023-06-22T02:27:44;99710.97;;;22.43;82.32
17615;BME280;8926;49.720;6.576;2023-06-22T02:30:09;99707.94;;;22.38;83.31
17615;BME280;8926;49.720;6.576;2023-06-22T02:32:36;99700.94;;;22.37;83.25
17615;BME280;8926;49.720;6.576;2023-06-22T02:35:01;99682.47;;;22.35;83.40
17615;BME280;8926;49.720;6.576;2023-06-22T02:37:33;99674.34;;;22.37;83.29
17615;BME280;8926;49.720;6.576;2023-06-22T02:39:58;99681.47;;;22.36;82.55
17615;BME280;8926;49.720;6.576;2023-06-22T02:42:23;99671.84;;;22.35;82.95
17615;BME280;8926;49.720;6.576;2023-06-22T02:44:49;99664.38;;;22.30;83.23
17615;BME280;8926;49.720;6.576;2023-06-22T02:47:14;99667.50;;;22.26;83.49
17615;BME280;8926;49.720;6.576;2023-06-22T02:49:39;99668.50;;;22.25;83.67
17615;BME280;8926;49.720;6.576;2023-06-22T02:52:05;99672.00;;;22.25;84.26
17615;BME280;8926;49.720;6.576;2023-06-22T02:54:30;99674.81;;;22.24;83.50
17615;BME280;8926;49.720;6.576;2023-06-22T02:56:55;99672.66;;;22.19;82.74
17615;BME280;8926;49.720;6.576;2023-06-22T02:59:20;99660.50;;;22.17;84.73
17615;BME280;8926;49.720;6.576;2023-06-22T03:01:50;99664.00;;;22.17;84.06
17615;BME280;8926;49.720;6.576;2023-06-22T03:04:15;99660.34;;;22.18;84.10
17615;BME280;8926;49.720;6.576;2023-06-22T03:06:41;99669.00;;;22.20;84.73
17615;BME280;8926;49.720;6.576;2023-06-22T03:09:07;99663.16;;;22.17;84.70
17615;BME280;8926;49.720;6.576;2023-06-22T03:11:33;99661.34;;;22.17;85.00
17615;BME280;8926;49.720;6.576;2023-06-22T03:13:59;99659.34;;;22.19;83.96
17615;BME280;8926;49.720;6.576;2023-06-22T03:16:25;99653.34;;;22.17;84.60
17615;BME280;8926;49.720;6.576;2023-06-22T03:18:51;99656.16;;;22.16;85.02
17615;BME280;8926;49.720;6.576;2023-06-22T03:21:16;99657.00;;;22.16;84.91
17615;BME280;8926;49.720;6.576;2023-06-22T03:23:42;99650.00;;;22.15;84.97
17615;BME280;8926;49.720;6.576;2023-06-22T03:26:10;99664.81;;;22.18;84.43
17615;BME280;8926;49.720;6.576;2023-06-22T03:28:37;99668.00;;;22.21;85.40
17615;BME280;8926;49.720;6.576;2023-06-22T03:31:03;99656.34;;;22.22;85.29
17615;BME280;8926;49.720;6.576;2023-06-22T03:33:29;99644.88;;;22.22;85.51
17615;BME280;8926;49.720;6.576;2023-06-22T03:35:54;99638.41;;;22.24;84.85
17615;BME280;8926;49.720;6.576;2023-06-22T03:38:20;99633.41;;;22.21;85.65
17615;BME280;8926;49.720;6.576;2023-06-22T03:40:45;99633.91;;;22.25;85.47
17615;BME280;8926;49.720;6.576;2023-06-22T03:43:11;99642.72;;;22.25;85.30
17615;BME280;8926;49.720;6.576;2023-06-22T03:45:36;99644.88;;;22.22;84.71
17615;BME280;8926;49.720;6.576;2023-06-22T03:48:02;99639.06;;;22.18;84.21
17615;BME280;8926;49.720;6.576;2023-06-22T03:50:27;99639.06;;;22.18;84.53
17615;BME280;8926;49.720;6.576;2023-06-22T03:52:53;99637.38;;;22.17;83.57
17615;BME280;8926;49.720;6.576;2023-06-22T03:55:21;99635.22;;;22.13;84.14
17615;BME280;8926;49.720;6.576;2023-06-22T03:57:46;99632.72;;;22.11;83.35
17615;BME280;8926;49.720;6.576;2023-06-22T04:00:12;99632.72;;;22.11;84.64
17615;BME280;8926;49.720;6.576;2023-06-22T04:02:38;99646.34;;;22.16;83.77
17615;BME280;8926;49.720;6.576;2023-06-22T04:05:04;99637.38;;;22.17;84.20
17615;BME280;8926;49.720;6.576;2023-06-22T04:07:29;99637.38;;;22.17;84.04
17615;BME280;8926;49.720;6.576;2023-06-22T04:09:54;99638.38;;;22.16;84.06
17615;BME280;8926;49.720;6.576;2023-06-22T04:12:20;99646.03;;;22.19;84.32
17615;BME280;8926;49.720;6.576;2023-06-22T04:14:45;99643.72;;;22.24;84.61
17615;BME280;8926;49.720;6.576;2023-06-22T04:17:10;99638.06;;;22.27;84.61
17615;BME280;8926;49.720;6.576;2023-06-22T04:19:39;99646.41;;;22.32;84.26
17615;BME280;8926;49.720;6.576;2023-06-22T04:22:04;99635.59;;;22.34;83.24
17615;BME280;8926;49.720;6.576;2023-06-22T04:24:32;99637.06;;;22.37;82.49
17615;BME280;8926;49.720;6.576;2023-06-22T04:26:57;99627.25;;;22.37;83.37
17615;BME280;8926;49.720;6.576;2023-06-22T04:29:25;99638.41;;;22.41;82.93
17615;BME280;8926;49.720;6.576;2023-06-22T04:31:54;99627.09;;;22.47;82.58
17615;BME280;8926;49.720;6.576;2023-06-22T04:34:21;99629.78;;;22.55;82.48
17615;BME280;8926;49.720;6.576;2023-06-22T04:36:46;99634.41;;;22.61;82.14
17615;BME280;8926;49.720;6.576;2023-06-22T04:39:11;99621.09;;;22.69;81.11
17615;BME280;8926;49.720;6.576;2023-06-22T04:41:37;99623.47;;;22.80;80.76
17615;BME280;8926;49.720;6.576;2023-06-22T04:44:13;99613.94;;;22.94;79.90
17615;BME280;8926;49.720;6.576;2023-06-22T04:46:39;99604.09;;;23.11;79.60
17615;BME280;8926;49.720;6.576;2023-06-22T04:49:06;99595.38;;;23.25;79.09
17615;BME280;8926;49.720;6.576;2023-06-22T04:51:39;99593.53;;;23.33;78.75
17615;BME280;8926;49.720;6.576;2023-06-22T04:54:05;99590.47;;;23.45;77.88
17615;BME280;8926;49.720;6.576;2023-06-22T04:56:32;99596.78;;;23.52;77.94
17615;BME280;8926;49.720;6.576;2023-06-22T04:58:57;99588.63;;;23.53;78.27
17615;BME280;8926;49.720;6.576;2023-06-22T05:01:23;99594.38;;;23.65;78.13
17615;BME280;8926;49.720;6.576;2023-06-22T05:03:48;99601.22;;;23.67;77.26
17615;BME280;8926;49.720;6.576;2023-06-22T05:06:14;99601.19;;;23.76;77.62
17615;BME280;8926;49.720;6.576;2023-06-22T05:08:39;99598.31;;;23.85;76.90
17615;BME280;8926;49.720;6.576;2023-06-22T05:11:05;99609.81;;;23.86;77.23
17615;BME280;8926;49.720;6.576;2023-06-22T05:13:30;99611.47;;;23.87;77.06
17615;BME280;8926;49.720;6.576;2023-06-22T05:15:56;99617.09;;;23.92;77.61
17615;BME280;8926;49.720;6.576;2023-06-22T05:18:30;99614.19;;;24.01;76.59
17615;BME280;8926;49.720;6.576;2023-06-22T05:20:55;99618.97;;;24.14;76.21
17615;BME280;8926;49.720;6.576;2023-06-22T05:23:20;99618.88;;;24.30;76.22
17615;BME280;8926;49.720;6.576;2023-06-22T05:25:46;99623.19;;;24.54;74.68
17615;BME280;8926;49.720;6.576;2023-06-22T05:28:11;99622.88;;;24.72;73.99
17615;BME280;8926;49.720;6.576;2023-06-22T05:30:37;99626.06;;;24.90;73.53
17615;BME280;8926;49.720;6.576;2023-06-22T05:33:03;99626.38;;;25.10;72.22
17615;BME280;8926;49.720;6.576;2023-06-22T05:35:28;99618.28;;;25.18;72.46
17615;BME280;8926;49.720;6.576;2023-06-22T05:37:54;99628.88;;;25.12;72.02
17615;BME280;8926;49.720;6.576;2023-06-22T05:40:20;99625.63;;;25.01;72.61
17615;BME280;8926;49.720;6.576;2023-06-22T05:42:46;99624.63;;;25.02;72.34
17615;BME280;8926;49.720;6.576;2023-06-22T05:45:12;99625.22;;;24.90;73.17
17615;BME280;8926;49.720;6.576;2023-06-22T05:47:37;99624.28;;;24.83;72.93
17615;BME280;8926;49.720;6.576;2023-06-22T05:50:02;99616.97;;;24.77;72.75
17615;BME280;8926;49.720;6.576;2023-06-22T05:52:32;99621.59;;;24.68;73.21
17615;BME280;8926;49.720;6.576;2023-06-22T05:54:57;99613.75;;;24.66;72.60
17615;BME280;8926;49.720;6.576;2023-06-22T05:57:22;99623.50;;;24.59;73.14
17615;BME280;8926;49.720;6.576;2023-06-22T05:59:47;99626.34;;;24.58;73.62
17615;BME280;8926;49.720;6.576;2023-06-22T06:02:13;99603.31;;;24.57;72.74
17615;BME280;8926;49.720;6.576;2023-06-22T06:04:38;99608.28;;;24.60;73.26
17615;BME280;8926;49.720;6.576;2023-06-22T06:07:03;99617.47;;;24.80;72.03
17615;BME280;8926;49.720;6.576;2023-06-22T06:09:29;99610.69;;;25.07;72.02
17615;BME280;8926;49.720;6.576;2023-06-22T06:11:54;99610.81;;;25.14;71.81
17615;BME280;8926;49.720;6.576;2023-06-22T06:14:19;99601.41;;;25.18;70.63
17615;BME280;8926;49.720;6.576;2023-06-22T06:16:45;99620.94;;;25.03;70.84
17615;BME280;8926;49.720;6.576;2023-06-22T06:19:10;99614.56;;;25.05;71.43
17615;BME280;8926;49.720;6.576;2023-06-22T06:21:36;99620.19;;;25.10;71.05
17615;BME280;8926;49.720;6.576;2023-06-22T06:24:01;99617.25;;;25.05;71.62
17615;BME280;8926;49.720;6.576;2023-06-22T06:26:26;99610.53;;;25.09;71.45
17615;BME280;8926;49.720;6.576;2023-06-22T06:29:00;99614.31;;;25.29;70.31
17615;BME280;8926;49.720;6.576;2023-06-22T06:31:25;99605.09;;;25.46;69.68
17615;BME280;8926;49.720;6.576;2023-06-22T06:33:53;99596.31;;;25.67;69.12
17615;BME280;8926;49.720;6.576;2023-06-22T06:36:19;99596.53;;;25.87;68.99
17615;BME280;8926;49.720;6.576;2023-06-22T06:38:44;99601.13;;;25.93;69.03
17615;BME280;8926;49.720;6.576;2023-06-22T06:41:12;99589.34;;;26.09;68.39
17615;BME280;8926;49.720;6.576;2023-06-22T06:43:37;99597.72;;;26.20;67.19
17615;BME280;8926;49.720;6.576;2023-06-22T06:46:02;99594.53;;;26.31;67.17
17615;BME280;8926;49.720;6.576;2023-06-22T06:48:28;99586.09;;;26.56;66.73
17615;BME280;8926;49.720;6.576;2023-06-22T06:50:53;99586.91;;;26.50;66.28
17615;BME280;8926;49.720;6.576;2023-06-22T06:53:18;99587.38;;;26.60;65.48
17615;BME280;8926;49.720;6.576;2023-06-22T06:55:44;99584.94;;;26.65;65.15
17615;BME280;8926;49.720;6.576;2023-06-22T06:58:10;99578.81;;;26.71;65.99
17615;BME280;8926;49.720;6.576;2023-06-22T07:00:38;99569.25;;;26.62;65.61
17615;BME280;8926;49.720;6.576;2023-06-22T07:03:04;99559.69;;;26.53;65.62
17615;BME280;8926;49.720;6.576;2023-06-22T07:05:29;99568.75;;;26.52;65.34
17615;BME280;8926;49.720;6.576;2023-06-22T07:07:55;99556.41;;;26.57;65.49
17615;BME280;8926;49.720;6.576;2023-06-22T07:10:20;99552.44;;;26.75;64.77
17615;BME280;8926;49.720;6.576;2023-06-22T07:12:46;99545.19;;;26.96;64.37
17615;BME280;8926;49.720;6.576;2023-06-22T07:15:11;99524.66;;;27.17;63.74
17615;BME280;8926;49.720;6.576;2023-06-22T07:17:38;99514.19;;;27.35;63.46
17615;BME280;8926;49.720;6.576;2023-06-22T07:20:07;99520.16;;;27.24;62.92
17615;BME280;8926;49.720;6.576;2023-06-22T07:22:37;99513.28;;;27.15;63.48
17615;BME280;8926;49.720;6.576;2023-06-22T07:25:03;99504.56;;;27.47;63.20
17615;BME280;8926;49.720;6.576;2023-06-22T07:27:38;99497.22;;;27.76;62.34
17615;BME280;8926;49.720;6.576;2023-06-22T07:30:05;99493.31;;;27.98;61.72
17615;BME280;8926;49.720;6.576;2023-06-22T07:32:30;99493.56;;;28.23;61.92
17615;BME280;8926;49.720;6.576;2023-06-22T07:34:56;99486.09;;;28.45;60.16
17615;BME280;8926;49.720;6.576;2023-06-22T07:37:21;99469.53;;;28.61;60.37
17615;BME280;8926;49.720;6.576;2023-06-22T07:39:46;99459.16;;;28.71;59.68
17615;BME280;8926;49.720;6.576;2023-06-22T07:42:12;99459.16;;;28.78;60.42
17615;BME280;8926;49.720;6.576;2023-06-22T07:44:37;99472.38;;;28.86;59.56
17615;BME280;8926;49.720;6.576;2023-06-22T07:47:02;99490.19;;;28.80;59.50
17615;BME280;8926;49.720;6.576;2023-06-22T07:49:28;99484.41;;;28.70;60.11
17615;BME280;8926;49.720;6.576;2023-06-22T07:51:54;99453.03;;;28.37;60.40
17615;BME280;8926;49.720;6.576;2023-06-22T07:54:19;99434.81;;;28.53;60.24
17615;BME280;8926;49.720;6.576;2023-06-22T07:56:46;99429.78;;;28.76;59.62
17615;BME280;8926;49.720;6.576;2023-06-22T07:59:11;99416.56;;;28.81;59.15
17615;BME280;8926;49.720;6.576;2023-06-22T08:01:36;99416.63;;;28.55;60.39
17615;BME280;8926;49.720;6.576;2023-06-22T08:04:02;99413.75;;;28.36;60.44
17615;BME280;8926;49.720;6.576;2023-06-22T08:06:30;99399.69;;;28.15;60.92
17615;BME280;8926;49.720;6.576;2023-06-22T08:08:55;99380.72;;;28.03;61.07
17615;BME280;8926;49.720;6.576;2023-06-22T08:11:22;99369.53;;;28.19;60.97
17615;BME280;8926;49.720;6.576;2023-06-22T08:13:49;99373.47;;;28.10;61.46
17615;BME280;8926;49.720;6.576;2023-06-22T08:16:15;99368.13;;;27.84;62.39
17615;BME280;8926;49.720;6.576;2023-06-22T08:18:40;99362.97;;;27.69;62.49
17615;BME280;8926;49.720;6.576;2023-06-22T08:21:05;99349.31;;;27.57;62.86
17615;BME280;8926;49.720;6.576;2023-06-22T08:23:31;99341.88;;;27.46;62.74
17615;BME280;8926;49.720;6.576;2023-06-22T08:25:56;99340.59;;;27.29;63.16
17615;BME280;8926;49.720;6.576;2023-06-22T08:28:21;99343.06;;;27.11;63.83
17615;BME280;8926;49.720;6.576;2023-06-22T08:30:47;99368.44;;;27.01;63.63
17615;BME280;8926;49.720;6.576;2023-06-22T08:33:12;99383.41;;;26.89;64.06
17615;BME280;8926;49.720;6.576;2023-06-22T08:35:37;99387.09;;;26.75;64.50
17615;BME280;8926;49.720;6.576;2023-06-22T08:38:03;99385.00;;;26.70;64.27
17615;BME280;8926;49.720;6.576;2023-06-22T08:40:28;99376.28;;;26.62;64.68
17615;BME280;8926;49.720;6.576;2023-06-22T08:42:54;99382.00;;;26.52;64.62
17615;BME280;8926;49.720;6.576;2023-06-22T08:45:20;99375.81;;;26.45;65.62
17615;BME280;8926;49.720;6.576;2023-06-22T08:47:45;99358.28;;;26.43;65.60
17615;BME280;8926;49.720;6.576;2023-06-22T08:50:11;99340.34;;;26.43;66.32
17615;BME280;8926;49.720;6.576;2023-06-22T08:52:38;99324.22;;;26.36;66.43
17615;BME280;8926;49.720;6.576;2023-06-22T08:55:07;99316.72;;;26.25;66.33
17615;BME280;8926;49.720;6.576;2023-06-22T08:57:32;99338.31;;;26.17;66.63
17615;BME280;8926;49.720;6.576;2023-06-22T08:59:58;99420.47;;;26.10;66.66
17615;BME280;8926;49.720;6.576;2023-06-22T09:02:24;99540.31;;;26.08;67.38
17615;BME280;8926;49.720;6.576;2023-06-22T09:04:49;99601.97;;;25.93;67.87
17615;BME280;8926;49.720;6.576;2023-06-22T09:07:21;99606.88;;;25.90;68.15
17615;BME280;8926;49.720;6.576;2023-06-22T09:09:48;99589.81;;;25.76;71.05
17615;BME280;8926;49.720;6.576;2023-06-22T09:12:14;99514.00;;;25.69;71.08
17615;BME280;8926;49.720;6.576;2023-06-22T09:14:39;99496.56;;;25.58;71.90
17615;BME280;8926;49.720;6.576;2023-06-22T09:17:05;99497.63;;;25.43;72.92
17615;BME280;8926;49.720;6.576;2023-06-22T09:19:30;99503.72;;;25.22;74.52
17615;BME280;8926;49.720;6.576;2023-06-22T09:21:55;99509.22;;;25.14;75.74
17615;BME280;8926;49.720;6.576;2023-06-22T09:24:21;99493.06;;;25.07;75.77
17615;BME280;8926;49.720;6.576;2023-06-22T09:26:46;99461.38;;;25.04;78.20
17615;BME280;8926;49.720;6.576;2023-06-22T09:29:11;99477.78;;;25.01;77.09
17615;BME280;8926;49.720;6.576;2023-06-22T09:31:37;99484.69;;;24.95;77.32
17615;BME280;8926;49.720;6.576;2023-06-22T09:34:02;99498.16;;;25.02;75.93
17615;BME280;8926;49.720;6.576;2023-06-22T09:36:27;99504.59;;;25.08;75.16
17615;BME280;8926;49.720;6.576;2023-06-22T09:38:52;99502.47;;;25.18;76.79
17615;BME280;8926;49.720;6.576;2023-06-22T09:41:20;99480.66;;;25.35;76.96
17615;BME280;8926;49.720;6.576;2023-06-22T09:43:45;99482.47;;;25.50;77.50
17615;BME280;8926;49.720;6.576;2023-06-22T09:46:10;99481.63;;;25.49;76.61
17615;BME280;8926;49.720;6.576;2023-06-22T09:48:36;99488.13;;;25.40;76.79
17615;BME280;8926;49.720;6.576;2023-06-22T09:51:01;99504.47;;;25.30;76.56
17615;BME280;8926;49.720;6.576;2023-06-22T09:53:26;99501.59;;;25.32;77.33
17615;BME280;8926;49.720;6.576;2023-06-22T09:55:52;99491.44;;;25.42;77.76
17615;BME280;8926;49.720;6.576;2023-06-22T09:58:17;99470.16;;;25.55;77.82
17615;BME280;8926;49.720;6.576;2023-06-22T10:00:42;99465.38;;;25.65;78.07
17615;BME280;8926;49.720;6.576;2023-06-22T10:03:07;99450.84;;;25.75;78.61
17615;BME280;8926;49.720;6.576;2023-06-22T10:05:33;99441.91;;;25.89;77.22
17615;BME280;8926;49.720;6.576;2023-06-22T10:07:58;99435.66;;;26.31;76.72
17615;BME280;8926;49.720;6.576;2023-06-22T10:10:24;99432.66;;;26.75;76.23
17615;BME280;8926;49.720;6.576;2023-06-22T10:12:55;99420.41;;;27.00;74.97
17615;BME280;8926;49.720;6.576;2023-06-22T10:15:21;99424.94;;;27.07;73.21
17615;BME280;8926;49.720;6.576;2023-06-22T10:17:47;99415.09;;;27.14;73.03
17615;BME280;8926;49.720;6.576;2023-06-22T10:20:12;99416.16;;;27.26;71.13
17615;BME280;8926;49.720;6.576;2023-06-22T10:22:39;99409.97;;;27.32;70.26
17615;BME280;8926;49.720;6.576;2023-06-22T10:25:05;99408.75;;;27.41;70.28
17615;BME280;8926;49.720;6.576;2023-06-22T10:27:31;99416.19;;;27.39;71.12
17615;BME280;8926;49.720;6.576;2023-06-22T10:29:56;99407.97;;;27.60;69.89
17615;BME280;8926;49.720;6.576;2023-06-22T10:32:22;99406.31;;;27.59;69.79
17615;BME280;8926;49.720;6.576;2023-06-22T10:34:47;99406.75;;;27.63;68.94
17615;BME280;8926;49.720;6.576;2023-06-22T10:37:12;99400.94;;;27.59;70.22
17615;BME280;8926;49.720;6.576;2023-06-22T10:39:38;99400.94;;;27.53;70.14
17615;BME280;8926;49.720;6.576;2023-06-22T10:42:03;99401.16;;;27.51;69.72
17615;BME280;8926;49.720;6.576;2023-06-22T10:44:28;99401.16;;;27.51;69.58
17615;BME280;8926;49.720;6.576;2023-06-22T10:46:54;99395.56;;;27.53;69.59
17615;BME280;8926;49.720;6.576;2023-06-22T10:49:19;99382.38;;;27.64;68.86
17615;BME280;8926;49.720;6.576;2023-06-22T10:51:44;99384.44;;;27.69;69.36
17615;BME280;8926;49.720;6.576;2023-06-22T10:54:09;99374.13;;;27.66;68.65
17615;BME280;8926;49.720;6.576;2023-06-22T10:56:35;99370.00;;;27.63;68.41
17615;BME280;8926;49.720;6.576;2023-06-22T10:59:00;99362.97;;;27.62;68.99
17615;BME280;8926;49.720;6.576;2023-06-22T11:01:26;99356.78;;;27.68;68.46
17615;BME280;8926;49.720;6.576;2023-06-22T11:03:53;99352.84;;;27.71;69.03
17615;BME280;8926;49.720;6.576;2023-06-22T11:06:18;99353.91;;;27.77;68.44
17615;BME280;8926;49.720;6.576;2023-06-22T11:08:44;99338.59;;;27.97;68.17
17615;BME280;8926;49.720;6.576;2023-06-22T11:11:10;99351.41;;;27.95;67.11
17615;BME280;8926;49.720;6.576;2023-06-22T11:13:35;99352.63;;;28.06;67.32
17615;BME280;8926;49.720;6.576;2023-06-22T11:16:01;99329.00;;;28.34;66.98
17615;BME280;8926;49.720;6.576;2023-06-22T11:18:26;99336.00;;;28.42;66.07
17615;BME280;8926;49.720;6.576;2023-06-22T11:20:51;99325.44;;;28.47;66.08
17615;BME280;8926;49.720;6.576;2023-06-22T11:23:16;99316.97;;;28.50;66.05
17615;BME280;8926;49.720;6.576;2023-06-22T11:25:42;99318.13;;;28.67;65.34
17615;BME280;8926;49.720;6.576;2023-06-22T11:28:08;99305.28;;;28.69;65.19
17615;BME280;8926;49.720;6.576;2023-06-22T11:30:33;99312.72;;;28.74;65.56
17615;BME280;8926;49.720;6.576;2023-06-22T11:32:59;99303.44;;;29.08;64.05
17615;BME280;8926;49.720;6.576;2023-06-22T11:35:25;99299.13;;;29.31;63.50
17615;BME280;8926;49.720;6.576;2023-06-22T11:37:50;99289.50;;;29.49;62.84
17615;BME280;8926;49.720;6.576;2023-06-22T11:40:15;99288.56;;;29.61;61.62
17615;BME280;8926;49.720;6.576;2023-06-22T11:42:42;99282.22;;;29.74;61.35
17615;BME280;8926;49.720;6.576;2023-06-22T11:45:08;99265.22;;;29.55;61.76
17615;BME280;8926;49.720;6.576;2023-06-22T11:47:33;99253.41;;;29.56;61.07
17615;BME280;8926;49.720;6.576;2023-06-22T11:49:58;99256.16;;;29.68;61.48
17615;BME280;8926;49.720;6.576;2023-06-22T11:52:24;99239.06;;;29.81;61.83
17615;BME280;8926;49.720;6.576;2023-06-22T11:54:49;99228.56;;;29.91;60.83
17615;BME280;8926;49.720;6.576;2023-06-22T11:57:14;99231.16;;;30.04;60.63
17615;BME280;8926;49.720;6.576;2023-06-22T11:59:39;99232.50;;;30.13;60.52
17615;BME280;8926;49.720;6.576;2023-06-22T12:02:05;99237.56;;;30.21;60.43
17615;BME280;8926;49.720;6.576;2023-06-22T12:04:32;99227.84;;;30.20;60.45
17615;BME280;8926;49.720;6.576;2023-06-22T12:06:58;99219.97;;;30.19;59.22
17615;BME280;8926;49.720;6.576;2023-06-22T12:09:23;99217.19;;;30.25;59.87
17615;BME280;8926;49.720;6.576;2023-06-22T12:11:48;99214.91;;;30.41;59.21
17615;BME280;8926;49.720;6.576;2023-06-22T12:14:14;99211.63;;;30.57;58.55
17615;BME280;8926;49.720;6.576;2023-06-22T12:16:39;99214.13;;;30.70;58.41
17615;BME280;8926;49.720;6.576;2023-06-22T12:19:04;99217.22;;;30.85;58.04
17615;BME280;8926;49.720;6.576;2023-06-22T12:21:30;99224.16;;;31.04;57.88
17615;BME280;8926;49.720;6.576;2023-06-22T12:23:55;99212.03;;;31.14;57.60
17615;BME280;8926;49.720;6.576;2023-06-22T12:26:21;99208.28;;;31.15;57.08
17615;BME280;8926;49.720;6.576;2023-06-22T12:28:47;99194.19;;;31.13;57.40
17615;BME280;8926;49.720;6.576;2023-06-22T12:31:13;99202.22;;;31.01;57.42
17615;BME280;8926;49.720;6.576;2023-06-22T12:33:39;99188.72;;;30.89;57.13
17615;BME280;8926;49.720;6.576;2023-06-22T12:36:04;99171.81;;;30.82;56.93
17615;BME280;8926;49.720;6.576;2023-06-22T12:38:30;99173.34;;;30.78;57.34
17615;BME280;8926;49.720;6.576;2023-06-22T12:40:55;99171.09;;;30.75;57.57
17615;BME280;8926;49.720;6.576;2023-06-22T12:43:21;99159.94;;;30.71;57.65
17615;BME280;8926;49.720;6.576;2023-06-22T12:45:46;99153.50;;;30.61;58.28
17615;BME280;8926;49.720;6.576;2023-06-22T12:48:11;99137.59;;;30.53;59.15
17615;BME280;8926;49.720;6.576;2023-06-22T12:50:38;99125.50;;;30.44;60.59
17615;BME280;8926;49.720;6.576;2023-06-22T12:53:03;99135.56;;;30.36;60.46
17615;BME280;8926;49.720;6.576;2023-06-22T12:55:29;99129.16;;;30.19;60.29
17615;BME280;8926;49.720;6.576;2023-06-22T12:57:54;99146.72;;;30.10;61.85
17615;BME280;8926;49.720;6.576;2023-06-22T13:00:20;99133.38;;;29.97;61.29
17615;BME280;8926;49.720;6.576;2023-06-22T13:02:46;99130.72;;;29.79;61.66
17615;BME280;8926;49.720;6.576;2023-06-22T13:05:12;99133.72;;;29.52;62.51
17615;BME280;8926;49.720;6.576;2023-06-22T13:07:37;99154.25;;;29.28;63.75
17615;BME280;8926;49.720;6.576;2023-06-22T13:10:03;99137.41;;;29.15;66.07
17615;BME280;8926;49.720;6.576;2023-06-22T13:12:28;99147.97;;;28.91;66.37
17615;BME280;8926;49.720;6.576;2023-06-22T13:14:54;99154.78;;;28.62;66.64